Adams, North Dakota
Current Conditions -  °F | °C
As of 6:35 AM on Sunday 21 Dec 2014 (Local Time) from KD55 Reporting Station
Haze Haze  
Wind Chill: 17°   Ceiling: Unl
Heat Index: 23°   Visibility: 6mi
Dew Point: 21°   Wind: 5mph
Humidity: 93%   Direction: 360°N
Pressure: 29.63"   Gusts: NA
Location:  48.42°N, 98.08°W
Report Text: KD55 211235Z AUTO 36004KT 6SM BR FEW008 M05/M06 A2963 RMK AO2
Loading
Personal Weather Stations






























Interactive Weather Map New forecast layout! Learn more

10-Day Weather Forecast

Advertisements
Track Severe Weather on mobile